PWSweather.com
Personal Weather Stations
Station Observations
DEKREUPEL
Wsv De Kreupel, AndijkNL 1619 JV

Wsv De KreupelAndijkNL 1619 JV

Lat: 52.7417364, Lon: 5.1809356

Elevation: 33

Station Type: Rainwise MKiii LR

High Low Average
Temperature 61.3°F16.3°C 58.9°F14.9°C 60.2°F15.7°C
Dew Point 89.4°F31.9°C 86.7°F30.4°C 88.2°F31.2°C
Winds 23.6 mph 38.0 kmh 6.0 mph 9.7 kmh 13.0 mph S20.9 kmh S
Wind Gusts 26.2 mph42.2 kmh 8.0 mph12.9 kmh 16.0 mph25.7 kmh
Humidity - - -
Pressure 30.10 in1019.3 mb 30.03 in1016.9 mb -
Precipitation 0.00 in0.0 mm - -
Hour Temp Dew Point Humidity Winds Wind Gusts Pressure Precip Precip Rate Daily Precip Total
12:04 AM 61.3°F16.3°C 89.4°F31.9°C - 10.4 mph NE16.7 kmh NE 13.6 mph21.9 kmh 30.04 in1017.3 mb 0.00 in0.0 mm 0.00 in0.0 mm 0.00 in0.0 mm
12:09 AM 61.2°F16.2°C 89.3°F31.8°C - 9.7 mph NE15.6 kmh NE 12.9 mph20.8 kmh 30.05 in1017.6 mb 0.00 in0.0 mm 0.00 in0.0 mm 0.00 in0.0 mm
12:14 AM 61.1°F16.2°C 89.1°F31.7°C - 11.0 mph NE17.7 kmh NE 14.6 mph23.5 kmh 30.05 in1017.6 mb 0.00 in0.0 mm 0.00 in0.0 mm 0.00 in0.0 mm
12:19 AM 61.0°F16.1°C 88.9°F31.6°C - 11.4 mph NE18.3 kmh NE 14.8 mph23.8 kmh 30.04 in1017.3 mb 0.00 in0.0 mm 0.00 in0.0 mm 0.00 in0.0 mm
12:24 AM 60.8°F16.0°C 88.7°F31.5°C - 10.1 mph NE16.3 kmh NE 13.3 mph21.4 kmh 30.04 in1017.3 mb 0.00 in0.0 mm 0.00 in0.0 mm 0.00 in0.0 mm
12:29 AM 60.9°F16.1°C 89.0°F31.7°C - 10.5 mph NE16.9 kmh NE 13.0 mph20.9 kmh 30.04 in1017.3 mb 0.00 in0.0 mm 0.00 in0.0 mm 0.00 in0.0 mm
12:34 AM 61.0°F16.1°C 89.1°F31.7°C - 10.7 mph NE17.2 kmh NE 14.7 mph23.7 kmh 30.04 in1017.3 mb 0.00 in0.0 mm 0.00 in0.0 mm 0.00 in0.0 mm
12:39 AM 60.8°F16.0°C 88.7°F31.5°C - 8.8 mph NE14.2 kmh NE 11.6 mph18.7 kmh 30.04 in1017.3 mb 0.00 in0.0 mm 0.00 in0.0 mm 0.00 in0.0 mm
12:44 AM 60.7°F15.9°C 88.6°F31.4°C - 9.3 mph ENE15.0 kmh ENE 11.3 mph18.2 kmh 30.04 in1017.3 mb 0.00 in0.0 mm 0.00 in0.0 mm 0.00 in0.0 mm
12:49 AM 60.6°F15.9°C 88.6°F31.4°C - 16.0 mph ENE25.7 kmh ENE 22.6 mph36.4 kmh 30.04 in1017.3 mb 0.00 in0.0 mm 0.00 in0.0 mm 0.00 in0.0 mm
12:54 AM 60.5°F15.8°C 88.5°F31.4°C - 16.7 mph NE26.9 kmh NE 23.0 mph37.0 kmh 30.04 in1017.3 mb 0.00 in0.0 mm 0.00 in0.0 mm 0.00 in0.0 mm
12:59 AM 60.3°F15.7°C 88.2°F31.2°C - 12.0 mph ENE19.3 kmh ENE 15.7 mph25.3 kmh 30.04 in1017.3 mb 0.00 in0.0 mm 0.00 in0.0 mm 0.00 in0.0 mm
01:04 AM 60.1°F15.6°C 88.1°F31.2°C - 10.1 mph NE16.3 kmh NE 16.8 mph27.0 kmh 30.05 in1017.6 mb 0.00 in0.0 mm 0.00 in0.0 mm 0.00 in0.0 mm
01:09 AM 60.0°F15.6°C 87.9°F31.1°C - 14.4 mph NE23.2 kmh NE 19.7 mph31.7 kmh 30.04 in1017.3 mb 0.00 in0.0 mm 0.00 in0.0 mm 0.00 in0.0 mm
01:14 AM 60.0°F15.6°C 87.8°F31.0°C - 11.1 mph ENE17.9 kmh ENE 14.8 mph23.8 kmh 30.04 in1017.3 mb 0.00 in0.0 mm 0.00 in0.0 mm 0.00 in0.0 mm
01:19 AM 60.0°F15.6°C 87.8°F31.0°C - 8.7 mph ENE14.0 kmh ENE 13.9 mph22.4 kmh 30.04 in1017.3 mb 0.00 in0.0 mm 0.00 in0.0 mm 0.00 in0.0 mm
01:24 AM 60.0°F15.6°C 87.8°F31.0°C - 14.0 mph NE22.5 kmh NE 23.2 mph37.3 kmh 30.04 in1017.3 mb 0.00 in0.0 mm 0.00 in0.0 mm 0.00 in0.0 mm
01:29 AM 60.0°F15.6°C 87.8°F31.0°C - 12.9 mph NE20.8 kmh NE 16.3 mph26.2 kmh 30.04 in1017.3 mb 0.00 in0.0 mm 0.00 in0.0 mm 0.00 in0.0 mm
01:34 AM 60.0°F15.6°C 87.9°F31.1°C - 10.7 mph ENE17.2 kmh ENE 17.5 mph28.2 kmh 30.04 in1017.3 mb 0.00 in0.0 mm 0.00 in0.0 mm 0.00 in0.0 mm
01:39 AM 60.0°F15.6°C 87.9°F31.1°C - 10.0 mph NE16.1 kmh NE 14.1 mph22.7 kmh 30.04 in1017.3 mb 0.00 in0.0 mm 0.00 in0.0 mm 0.00 in0.0 mm
01:44 AM 60.1°F15.6°C 88.1°F31.2°C - 11.9 mph NE19.2 kmh NE 14.5 mph23.3 kmh 30.04 in1017.3 mb 0.00 in0.0 mm 0.00 in0.0 mm 0.00 in0.0 mm
01:49 AM 60.2°F15.7°C 88.2°F31.2°C - 11.2 mph NE18.0 kmh NE 14.8 mph23.8 kmh 30.04 in1017.3 mb 0.00 in0.0 mm 0.00 in0.0 mm 0.00 in0.0 mm
01:54 AM 60.2°F15.7°C 88.0°F31.1°C - 10.3 mph NE16.6 kmh NE 13.2 mph21.2 kmh 30.04 in1017.3 mb 0.00 in0.0 mm 0.00 in0.0 mm 0.00 in0.0 mm
01:59 AM 60.2°F15.7°C 88.0°F31.1°C - 11.9 mph NE19.2 kmh NE 15.1 mph24.3 kmh 30.03 in1016.9 mb 0.00 in0.0 mm 0.00 in0.0 mm 0.00 in0.0 mm
02:04 AM 60.2°F15.7°C 88.2°F31.2°C - 9.7 mph NE15.6 kmh NE 14.3 mph23.0 kmh 30.04 in1017.3 mb 0.00 in0.0 mm 0.00 in0.0 mm 0.00 in0.0 mm
02:09 AM 60.2°F15.7°C 88.2°F31.2°C - 11.5 mph NE18.5 kmh NE 14.3 mph23.0 kmh 30.03 in1016.9 mb 0.00 in0.0 mm 0.00 in0.0 mm 0.00 in0.0 mm
02:14 AM 60.2°F15.7°C 88.2°F31.2°C - 9.9 mph ENE15.9 kmh ENE 13.1 mph21.1 kmh 30.03 in1016.9 mb 0.00 in0.0 mm 0.00 in0.0 mm 0.00 in0.0 mm
02:19 AM 60.0°F15.6°C 87.9°F31.1°C - 8.5 mph ENE13.7 kmh ENE 12.1 mph19.5 kmh 30.03 in1016.9 mb 0.00 in0.0 mm 0.00 in0.0 mm 0.00 in0.0 mm
02:24 AM 59.9°F15.5°C 87.8°F31.0°C - 8.7 mph ENE14.0 kmh ENE 12.0 mph19.3 kmh 30.03 in1016.9 mb 0.00 in0.0 mm 0.00 in0.0 mm 0.00 in0.0 mm
02:29 AM 59.9°F15.5°C 87.8°F31.0°C - 8.3 mph NE13.4 kmh NE 10.5 mph16.9 kmh 30.03 in1016.9 mb 0.00 in0.0 mm 0.00 in0.0 mm 0.00 in0.0 mm
02:34 AM 59.9°F15.5°C 87.8°F31.0°C - 6.0 mph NE9.7 kmh NE 8.8 mph14.2 kmh 30.03 in1016.9 mb 0.00 in0.0 mm 0.00 in0.0 mm 0.00 in0.0 mm
02:39 AM 59.8°F15.4°C 87.6°F30.9°C - 9.5 mph NE15.3 kmh NE 11.7 mph18.8 kmh 30.03 in1016.9 mb 0.00 in0.0 mm 0.00 in0.0 mm 0.00 in0.0 mm
02:44 AM 59.8°F15.4°C 87.6°F30.9°C - 9.1 mph NE14.6 kmh NE 12.1 mph19.5 kmh 30.03 in1016.9 mb 0.00 in0.0 mm 0.00 in0.0 mm 0.00 in0.0 mm
02:49 AM 60.1°F15.6°C 88.1°F31.2°C - 8.5 mph ENE13.7 kmh ENE 11.6 mph18.7 kmh 30.03 in1016.9 mb 0.00 in0.0 mm 0.00 in0.0 mm 0.00 in0.0 mm
02:54 AM 60.1°F15.6°C 87.9°F31.1°C - 8.2 mph ENE13.2 kmh ENE 11.5 mph18.5 kmh 30.03 in1016.9 mb 0.00 in0.0 mm 0.00 in0.0 mm 0.00 in0.0 mm
02:59 AM 60.0°F15.6°C 87.9°F31.1°C - 9.5 mph ENE15.3 kmh ENE 12.3 mph19.8 kmh 30.04 in1017.3 mb 0.00 in0.0 mm 0.00 in0.0 mm 0.00 in0.0 mm
03:04 AM 60.0°F15.6°C 87.8°F31.0°C - 10.3 mph NE16.6 kmh NE 12.6 mph20.3 kmh 30.04 in1017.3 mb 0.00 in0.0 mm 0.00 in0.0 mm 0.00 in0.0 mm
03:09 AM 60.2°F15.7°C 88.2°F31.2°C - 11.5 mph NE18.5 kmh NE 14.1 mph22.7 kmh 30.04 in1017.3 mb 0.00 in0.0 mm 0.00 in0.0 mm 0.00 in0.0 mm
03:14 AM 60.2°F15.7°C 88.2°F31.2°C - 9.8 mph NE15.8 kmh NE 12.6 mph20.3 kmh 30.04 in1017.3 mb 0.00 in0.0 mm 0.00 in0.0 mm 0.00 in0.0 mm
03:19 AM 60.2°F15.7°C 88.2°F31.2°C - 9.9 mph ENE15.9 kmh ENE 13.6 mph21.9 kmh 30.03 in1016.9 mb 0.00 in0.0 mm 0.00 in0.0 mm 0.00 in0.0 mm
03:24 AM 60.1°F15.6°C 88.1°F31.2°C - 10.5 mph NE16.9 kmh NE 14.0 mph22.5 kmh 30.03 in1016.9 mb 0.00 in0.0 mm 0.00 in0.0 mm 0.00 in0.0 mm
03:29 AM 60.0°F15.6°C 87.9°F31.1°C - 8.4 mph NE13.5 kmh NE 11.0 mph17.7 kmh 30.03 in1016.9 mb 0.00 in0.0 mm 0.00 in0.0 mm 0.00 in0.0 mm
03:34 AM 60.0°F15.6°C 87.9°F31.1°C - 7.6 mph NE12.2 kmh NE 9.7 mph15.6 kmh 30.03 in1016.9 mb 0.00 in0.0 mm 0.00 in0.0 mm 0.00 in0.0 mm
03:39 AM 59.8°F15.4°C 87.7°F30.9°C - 9.7 mph NE15.6 kmh NE 11.9 mph19.2 kmh 30.04 in1017.3 mb 0.00 in0.0 mm 0.00 in0.0 mm 0.00 in0.0 mm
03:44 AM 60.0°F15.6°C 87.8°F31.0°C - 6.2 mph NE10.0 kmh NE 8.0 mph12.9 kmh 30.04 in1017.3 mb 0.00 in0.0 mm 0.00 in0.0 mm 0.00 in0.0 mm
03:49 AM 60.0°F15.6°C 87.9°F31.1°C - 9.1 mph NE14.6 kmh NE 12.5 mph20.1 kmh 30.04 in1017.3 mb 0.00 in0.0 mm 0.00 in0.0 mm 0.00 in0.0 mm
03:54 AM 60.0°F15.6°C 87.9°F31.1°C - 8.2 mph NE13.2 kmh NE 11.2 mph18.0 kmh 30.04 in1017.3 mb 0.00 in0.0 mm 0.00 in0.0 mm 0.00 in0.0 mm
03:59 AM 59.9°F15.5°C 87.7°F30.9°C - 7.8 mph NE12.6 kmh NE 10.5 mph16.9 kmh 30.04 in1017.3 mb 0.00 in0.0 mm 0.00 in0.0 mm 0.00 in0.0 mm
04:04 AM 59.8°F15.4°C 87.7°F30.9°C - 6.6 mph ENE10.6 kmh ENE 8.5 mph13.7 kmh 30.04 in1017.3 mb 0.00 in0.0 mm 0.00 in0.0 mm 0.00 in0.0 mm
04:09 AM 60.0°F15.6°C 87.8°F31.0°C - 8.9 mph NE14.3 kmh NE 11.9 mph19.2 kmh 30.04 in1017.3 mb 0.00 in0.0 mm 0.00 in0.0 mm 0.00 in0.0 mm
04:14 AM 60.2°F15.7°C 88.0°F31.1°C - 9.6 mph NE15.4 kmh NE 12.7 mph20.4 kmh 30.04 in1017.3 mb 0.00 in0.0 mm 0.00 in0.0 mm 0.00 in0.0 mm
04:19 AM 60.3°F15.7°C 88.2°F31.2°C - 8.3 mph NE13.4 kmh NE 10.8 mph17.4 kmh 30.04 in1017.3 mb 0.00 in0.0 mm 0.00 in0.0 mm 0.00 in0.0 mm
04:24 AM 60.2°F15.7°C 88.2°F31.2°C - 8.4 mph NE13.5 kmh NE 11.7 mph18.8 kmh 30.04 in1017.3 mb 0.00 in0.0 mm 0.00 in0.0 mm 0.00 in0.0 mm
04:29 AM 60.2°F15.7°C 88.0°F31.1°C - 11.3 mph NE18.2 kmh NE 13.8 mph22.2 kmh 30.04 in1017.3 mb 0.00 in0.0 mm 0.00 in0.0 mm 0.00 in0.0 mm
04:34 AM 60.2°F15.7°C 88.2°F31.2°C - 11.0 mph NE17.7 kmh NE 13.6 mph21.9 kmh 30.04 in1017.3 mb 0.00 in0.0 mm 0.00 in0.0 mm 0.00 in0.0 mm
04:39 AM 60.3°F15.7°C 88.3°F31.3°C - 11.3 mph NNE18.2 kmh NNE 13.1 mph21.1 kmh 30.04 in1017.3 mb 0.00 in0.0 mm 0.00 in0.0 mm 0.00 in0.0 mm
04:44 AM 60.3°F15.7°C 88.2°F31.2°C - 13.1 mph NE21.1 kmh NE 15.7 mph25.3 kmh 30.04 in1017.3 mb 0.00 in0.0 mm 0.00 in0.0 mm 0.00 in0.0 mm
04:49 AM 60.3°F15.7°C 88.2°F31.2°C - 12.8 mph NE20.6 kmh NE 15.6 mph25.1 kmh 30.04 in1017.3 mb 0.00 in0.0 mm 0.00 in0.0 mm 0.00 in0.0 mm
04:54 AM 60.2°F15.7°C 88.2°F31.2°C - 11.0 mph NE17.7 kmh NE 13.8 mph22.2 kmh 30.03 in1016.9 mb 0.00 in0.0 mm 0.00 in0.0 mm 0.00 in0.0 mm
04:59 AM 60.0°F15.6°C 87.8°F31.0°C - 10.6 mph NE17.1 kmh NE 13.7 mph22.0 kmh 30.04 in1017.3 mb 0.00 in0.0 mm 0.00 in0.0 mm 0.00 in0.0 mm
05:04 AM 60.1°F15.6°C 88.1°F31.2°C - 11.4 mph NE18.3 kmh NE 13.3 mph21.4 kmh 30.04 in1017.3 mb 0.00 in0.0 mm 0.00 in0.0 mm 0.00 in0.0 mm
05:09 AM 60.2°F15.7°C 88.2°F31.2°C - 11.4 mph ENE18.3 kmh ENE 14.4 mph23.2 kmh 30.04 in1017.3 mb 0.00 in0.0 mm 0.00 in0.0 mm 0.00 in0.0 mm
05:14 AM 60.2°F15.7°C 88.2°F31.2°C - 8.9 mph NNE14.3 kmh NNE 12.3 mph19.8 kmh 30.04 in1017.3 mb 0.00 in0.0 mm 0.00 in0.0 mm 0.00 in0.0 mm
05:19 AM 60.0°F15.6°C 87.8°F31.0°C - 10.6 mph NE17.1 kmh NE 13.3 mph21.4 kmh 30.04 in1017.3 mb 0.00 in0.0 mm 0.00 in0.0 mm 0.00 in0.0 mm
05:24 AM 59.9°F15.5°C 87.8°F31.0°C - 11.4 mph NE18.3 kmh NE 14.4 mph23.2 kmh 30.04 in1017.3 mb 0.00 in0.0 mm 0.00 in0.0 mm 0.00 in0.0 mm
05:29 AM 59.8°F15.4°C 87.7°F30.9°C - 12.4 mph NE20.0 kmh NE 15.2 mph24.5 kmh 30.03 in1016.9 mb 0.00 in0.0 mm 0.00 in0.0 mm 0.00 in0.0 mm
05:34 AM 60.0°F15.6°C 87.9°F31.1°C - 11.9 mph NE19.2 kmh NE 14.9 mph24.0 kmh 30.03 in1016.9 mb 0.00 in0.0 mm 0.00 in0.0 mm 0.00 in0.0 mm
05:39 AM 60.0°F15.6°C 87.9°F31.1°C - 11.0 mph NE17.7 kmh NE 14.8 mph23.8 kmh 30.04 in1017.3 mb 0.00 in0.0 mm 0.00 in0.0 mm 0.00 in0.0 mm
05:44 AM 59.8°F15.4°C 87.6°F30.9°C - 11.5 mph NE18.5 kmh NE 14.3 mph23.0 kmh 30.04 in1017.3 mb 0.00 in0.0 mm 0.00 in0.0 mm 0.00 in0.0 mm
05:49 AM 59.7°F15.4°C 87.6°F30.9°C - 11.4 mph NE18.3 kmh NE 13.7 mph22.0 kmh 30.03 in1016.9 mb 0.00 in0.0 mm 0.00 in0.0 mm 0.00 in0.0 mm
05:54 AM 59.7°F15.4°C 87.5°F30.8°C - 7.8 mph NE12.6 kmh NE 9.6 mph15.4 kmh 30.03 in1016.9 mb 0.00 in0.0 mm 0.00 in0.0 mm 0.00 in0.0 mm
05:59 AM 59.9°F15.5°C 87.8°F31.0°C - 10.0 mph NNE16.1 kmh NNE 12.4 mph20.0 kmh 30.03 in1016.9 mb 0.00 in0.0 mm 0.00 in0.0 mm 0.00 in0.0 mm
06:04 AM 60.1°F15.6°C 88.1°F31.2°C - 8.3 mph NNE13.4 kmh NNE 10.5 mph16.9 kmh 30.03 in1016.9 mb 0.00 in0.0 mm 0.00 in0.0 mm 0.00 in0.0 mm
06:09 AM 60.2°F15.7°C 88.2°F31.2°C - 9.2 mph NE14.8 kmh NE 11.9 mph19.2 kmh 30.03 in1016.9 mb 0.00 in0.0 mm 0.00 in0.0 mm 0.00 in0.0 mm
06:14 AM 60.2°F15.7°C 88.2°F31.2°C - 8.1 mph NE13.0 kmh NE 10.2 mph16.4 kmh 30.04 in1017.3 mb 0.00 in0.0 mm 0.00 in0.0 mm 0.00 in0.0 mm
06:19 AM 60.3°F15.7°C 88.3°F31.3°C - 11.5 mph ENE18.5 kmh ENE 14.5 mph23.3 kmh 30.03 in1016.9 mb 0.00 in0.0 mm 0.00 in0.0 mm 0.00 in0.0 mm
06:24 AM 60.5°F15.8°C 88.5°F31.4°C - 11.5 mph NE18.5 kmh NE 14.3 mph23.0 kmh 30.03 in1016.9 mb 0.00 in0.0 mm 0.00 in0.0 mm 0.00 in0.0 mm
06:29 AM 60.7°F15.9°C 88.7°F31.5°C - 13.2 mph NE21.2 kmh NE 16.5 mph26.6 kmh 30.03 in1016.9 mb 0.00 in0.0 mm 0.00 in0.0 mm 0.00 in0.0 mm
06:34 AM 60.6°F15.9°C 88.6°F31.4°C - 12.5 mph NE20.1 kmh NE 15.5 mph24.9 kmh 30.03 in1016.9 mb 0.00 in0.0 mm 0.00 in0.0 mm 0.00 in0.0 mm
06:39 AM 60.7°F15.9°C 88.6°F31.4°C - 12.0 mph NE19.3 kmh NE 14.8 mph23.8 kmh 30.04 in1017.3 mb 0.00 in0.0 mm 0.00 in0.0 mm 0.00 in0.0 mm
06:44 AM 60.7°F15.9°C 88.6°F31.4°C - 11.9 mph NE19.2 kmh NE 14.5 mph23.3 kmh 30.04 in1017.3 mb 0.00 in0.0 mm 0.00 in0.0 mm 0.00 in0.0 mm
06:49 AM 60.6°F15.9°C 88.6°F31.4°C - 10.2 mph NE16.4 kmh NE 13.0 mph20.9 kmh 30.04 in1017.3 mb 0.00 in0.0 mm 0.00 in0.0 mm 0.00 in0.0 mm
06:54 AM 60.7°F15.9°C 88.7°F31.5°C - 10.8 mph NNE17.4 kmh NNE 13.0 mph20.9 kmh 30.04 in1017.3 mb 0.00 in0.0 mm 0.00 in0.0 mm 0.00 in0.0 mm
06:59 AM 60.6°F15.9°C 88.6°F31.4°C - 9.2 mph NE14.8 kmh NE 11.0 mph17.7 kmh 30.04 in1017.3 mb 0.00 in0.0 mm 0.00 in0.0 mm 0.00 in0.0 mm
07:04 AM 60.5°F15.8°C 88.5°F31.4°C - 11.7 mph NE18.8 kmh NE 14.5 mph23.3 kmh 30.04 in1017.3 mb 0.00 in0.0 mm 0.00 in0.0 mm 0.00 in0.0 mm
07:09 AM 60.5°F15.8°C 88.5°F31.4°C - 9.2 mph ENE14.8 kmh ENE 12.2 mph19.6 kmh 30.04 in1017.3 mb 0.00 in0.0 mm 0.00 in0.0 mm 0.00 in0.0 mm
07:14 AM 60.5°F15.8°C 88.4°F31.3°C - 10.3 mph NE16.6 kmh NE 13.9 mph22.4 kmh 30.04 in1017.3 mb 0.00 in0.0 mm 0.00 in0.0 mm 0.00 in0.0 mm
07:19 AM 60.6°F15.9°C 88.6°F31.4°C - 10.8 mph NE17.4 kmh NE 13.3 mph21.4 kmh 30.04 in1017.3 mb 0.00 in0.0 mm 0.00 in0.0 mm 0.00 in0.0 mm
07:24 AM 60.6°F15.9°C 88.6°F31.4°C - 6.7 mph ENE10.8 kmh ENE 9.3 mph15.0 kmh 30.05 in1017.6 mb 0.00 in0.0 mm 0.00 in0.0 mm 0.00 in0.0 mm
07:29 AM 60.5°F15.8°C 88.4°F31.3°C - 7.8 mph NE12.6 kmh NE 10.9 mph17.5 kmh 30.05 in1017.6 mb 0.00 in0.0 mm 0.00 in0.0 mm 0.00 in0.0 mm
07:34 AM 60.4°F15.8°C 88.4°F31.3°C - 9.8 mph ENE15.8 kmh ENE 12.9 mph20.8 kmh 30.05 in1017.6 mb 0.00 in0.0 mm 0.00 in0.0 mm 0.00 in0.0 mm
07:39 AM 60.2°F15.7°C 88.0°F31.1°C - 8.0 mph E12.9 kmh E 11.4 mph18.3 kmh 30.05 in1017.6 mb 0.00 in0.0 mm 0.00 in0.0 mm 0.00 in0.0 mm
07:44 AM 60.1°F15.6°C 88.1°F31.2°C - 10.0 mph NE16.1 kmh NE 13.0 mph20.9 kmh 30.05 in1017.6 mb 0.00 in0.0 mm 0.00 in0.0 mm 0.00 in0.0 mm
07:49 AM 60.2°F15.7°C 88.0°F31.1°C - 10.2 mph NE16.4 kmh NE 12.6 mph20.3 kmh 30.05 in1017.6 mb 0.00 in0.0 mm 0.00 in0.0 mm 0.00 in0.0 mm
07:54 AM 60.2°F15.7°C 88.2°F31.2°C - 8.7 mph NE14.0 kmh NE 11.8 mph19.0 kmh 30.05 in1017.6 mb 0.00 in0.0 mm 0.00 in0.0 mm 0.00 in0.0 mm
07:59 AM 60.2°F15.7°C 88.0°F31.1°C - 7.6 mph NE12.2 kmh NE 10.1 mph16.3 kmh 30.05 in1017.6 mb 0.00 in0.0 mm 0.00 in0.0 mm 0.00 in0.0 mm
08:04 AM 60.2°F15.7°C 88.2°F31.2°C - 9.9 mph NE15.9 kmh NE 12.3 mph19.8 kmh 30.05 in1017.6 mb 0.00 in0.0 mm 0.00 in0.0 mm 0.00 in0.0 mm
08:09 AM 60.5°F15.8°C 88.4°F31.3°C - 9.8 mph NE15.8 kmh NE 12.3 mph19.8 kmh 30.05 in1017.6 mb 0.00 in0.0 mm 0.00 in0.0 mm 0.00 in0.0 mm
08:14 AM 60.6°F15.9°C 88.6°F31.4°C - 9.9 mph NE15.9 kmh NE 12.3 mph19.8 kmh 30.05 in1017.6 mb 0.00 in0.0 mm 0.00 in0.0 mm 0.00 in0.0 mm
08:19 AM 60.6°F15.9°C 88.6°F31.4°C - 9.1 mph NE14.6 kmh NE 11.4 mph18.3 kmh 30.05 in1017.6 mb 0.00 in0.0 mm 0.00 in0.0 mm 0.00 in0.0 mm
08:24 AM 60.6°F15.9°C 88.5°F31.4°C - 10.4 mph NE16.7 kmh NE 13.1 mph21.1 kmh 30.05 in1017.6 mb 0.00 in0.0 mm 0.00 in0.0 mm 0.00 in0.0 mm
08:29 AM 60.7°F15.9°C 88.7°F31.5°C - 13.0 mph NNE20.9 kmh NNE 15.4 mph24.8 kmh 30.05 in1017.6 mb 0.00 in0.0 mm 0.00 in0.0 mm 0.00 in0.0 mm
08:34 AM 60.6°F15.9°C 88.5°F31.4°C - 10.7 mph NNE17.2 kmh NNE 13.0 mph20.9 kmh 30.05 in1017.6 mb 0.00 in0.0 mm 0.00 in0.0 mm 0.00 in0.0 mm
08:39 AM 60.5°F15.8°C 88.5°F31.4°C - 9.8 mph NNE15.8 kmh NNE 11.9 mph19.2 kmh 30.05 in1017.6 mb 0.00 in0.0 mm 0.00 in0.0 mm 0.00 in0.0 mm
08:44 AM 60.5°F15.8°C 88.5°F31.4°C - 11.6 mph NE18.7 kmh NE 14.5 mph23.3 kmh 30.05 in1017.6 mb 0.00 in0.0 mm 0.00 in0.0 mm 0.00 in0.0 mm
08:49 AM 60.5°F15.8°C 88.5°F31.4°C - 10.6 mph N17.1 kmh N 12.2 mph19.6 kmh 30.05 in1017.6 mb 0.00 in0.0 mm 0.00 in0.0 mm 0.00 in0.0 mm
08:54 AM 60.3°F15.7°C 88.3°F31.3°C - 9.1 mph NE14.6 kmh NE 11.3 mph18.2 kmh 30.05 in1017.6 mb 0.00 in0.0 mm 0.00 in0.0 mm 0.00 in0.0 mm
08:59 AM 60.5°F15.8°C 88.5°F31.4°C - 10.6 mph NNE17.1 kmh NNE 12.8 mph20.6 kmh 30.05 in1017.6 mb 0.00 in0.0 mm 0.00 in0.0 mm 0.00 in0.0 mm
09:04 AM 60.4°F15.8°C 88.4°F31.3°C - 9.2 mph NE14.8 kmh NE 10.6 mph17.1 kmh 30.05 in1017.6 mb 0.00 in0.0 mm 0.00 in0.0 mm 0.00 in0.0 mm
09:09 AM 60.3°F15.7°C 88.3°F31.3°C - 9.4 mph NNE15.1 kmh NNE 11.2 mph18.0 kmh 30.06 in1017.9 mb 0.00 in0.0 mm 0.00 in0.0 mm 0.00 in0.0 mm
09:14 AM 60.5°F15.8°C 88.5°F31.4°C - 8.9 mph NNE14.3 kmh NNE 10.6 mph17.1 kmh 30.06 in1017.9 mb 0.00 in0.0 mm 0.00 in0.0 mm 0.00 in0.0 mm
09:19 AM 60.7°F15.9°C 88.7°F31.5°C - 9.2 mph N14.8 kmh N 10.8 mph17.4 kmh 30.06 in1017.9 mb 0.00 in0.0 mm 0.00 in0.0 mm 0.00 in0.0 mm
09:24 AM 60.7°F15.9°C 88.7°F31.5°C - 11.1 mph N17.9 kmh N 13.4 mph21.6 kmh 30.06 in1017.9 mb 0.00 in0.0 mm 0.00 in0.0 mm 0.00 in0.0 mm
09:29 AM 60.6°F15.9°C 88.5°F31.4°C - 11.3 mph N18.2 kmh N 12.8 mph20.6 kmh 30.06 in1017.9 mb 0.00 in0.0 mm 0.00 in0.0 mm 0.00 in0.0 mm
09:34 AM 60.7°F15.9°C 88.7°F31.5°C - 11.4 mph N18.3 kmh N 13.4 mph21.6 kmh 30.05 in1017.6 mb 0.00 in0.0 mm 0.00 in0.0 mm 0.00 in0.0 mm
09:39 AM 60.8°F16.0°C 88.8°F31.6°C - 10.4 mph NNE16.7 kmh NNE 13.4 mph21.6 kmh 30.05 in1017.6 mb 0.00 in0.0 mm 0.00 in0.0 mm 0.00 in0.0 mm
09:44 AM 60.6°F15.9°C 88.5°F31.4°C - 10.6 mph NNE17.1 kmh NNE 13.2 mph21.2 kmh 30.06 in1017.9 mb 0.00 in0.0 mm 0.00 in0.0 mm 0.00 in0.0 mm
09:49 AM 60.5°F15.8°C 88.4°F31.3°C - 11.0 mph NNE17.7 kmh NNE 13.3 mph21.4 kmh 30.05 in1017.6 mb 0.00 in0.0 mm 0.00 in0.0 mm 0.00 in0.0 mm
09:54 AM 60.4°F15.8°C 88.4°F31.3°C - 13.1 mph N21.1 kmh N 14.8 mph23.8 kmh 30.05 in1017.6 mb 0.00 in0.0 mm 0.00 in0.0 mm 0.00 in0.0 mm
09:59 AM 60.5°F15.8°C 88.4°F31.3°C - 10.7 mph NNE17.2 kmh NNE 13.5 mph21.7 kmh 30.06 in1017.9 mb 0.00 in0.0 mm 0.00 in0.0 mm 0.00 in0.0 mm
10:04 AM 60.6°F15.9°C 88.6°F31.4°C - 13.1 mph N21.1 kmh N 14.8 mph23.8 kmh 30.06 in1017.9 mb 0.00 in0.0 mm 0.00 in0.0 mm 0.00 in0.0 mm
10:09 AM 60.7°F15.9°C 88.7°F31.5°C - 12.1 mph NNE19.5 kmh NNE 15.7 mph25.3 kmh 30.05 in1017.6 mb 0.00 in0.0 mm 0.00 in0.0 mm 0.00 in0.0 mm
10:14 AM 60.5°F15.8°C 88.4°F31.3°C - 14.1 mph NNE22.7 kmh NNE 17.1 mph27.5 kmh 30.05 in1017.6 mb 0.00 in0.0 mm 0.00 in0.0 mm 0.00 in0.0 mm
10:19 AM 60.2°F15.7°C 88.0°F31.1°C - 12.1 mph NNE19.5 kmh NNE 14.1 mph22.7 kmh 30.06 in1017.9 mb 0.00 in0.0 mm 0.00 in0.0 mm 0.00 in0.0 mm
10:24 AM 60.2°F15.7°C 88.0°F31.1°C - 11.7 mph NNE18.8 kmh NNE 14.3 mph23.0 kmh 30.06 in1017.9 mb 0.00 in0.0 mm 0.00 in0.0 mm 0.00 in0.0 mm
10:29 AM 60.2°F15.7°C 88.0°F31.1°C - 11.0 mph NNE17.7 kmh NNE 13.5 mph21.7 kmh 30.06 in1017.9 mb 0.00 in0.0 mm 0.00 in0.0 mm 0.00 in0.0 mm
10:34 AM 60.2°F15.7°C 88.0°F31.1°C - 11.1 mph NNE17.9 kmh NNE 12.9 mph20.8 kmh 30.06 in1017.9 mb 0.00 in0.0 mm 0.00 in0.0 mm 0.00 in0.0 mm
10:39 AM 60.2°F15.7°C 88.2°F31.2°C - 12.0 mph NNE19.3 kmh NNE 14.6 mph23.5 kmh 30.06 in1017.9 mb 0.00 in0.0 mm 0.00 in0.0 mm 0.00 in0.0 mm
10:44 AM 60.2°F15.7°C 88.0°F31.1°C - 8.7 mph NNE14.0 kmh NNE 10.4 mph16.7 kmh 30.07 in1018.3 mb 0.00 in0.0 mm 0.00 in0.0 mm 0.00 in0.0 mm
10:49 AM 60.3°F15.7°C 88.3°F31.3°C - 10.5 mph NNE16.9 kmh NNE 12.3 mph19.8 kmh 30.07 in1018.3 mb 0.00 in0.0 mm 0.00 in0.0 mm 0.00 in0.0 mm
10:54 AM 60.3°F15.7°C 88.3°F31.3°C - 11.3 mph N18.2 kmh N 13.8 mph22.2 kmh 30.07 in1018.3 mb 0.00 in0.0 mm 0.00 in0.0 mm 0.00 in0.0 mm
10:59 AM 60.5°F15.8°C 88.4°F31.3°C - 11.3 mph N18.2 kmh N 13.6 mph21.9 kmh 30.07 in1018.3 mb 0.00 in0.0 mm 0.00 in0.0 mm 0.00 in0.0 mm
11:04 AM 60.5°F15.8°C 88.4°F31.3°C - 12.7 mph N20.4 kmh N 14.8 mph23.8 kmh 30.07 in1018.3 mb 0.00 in0.0 mm 0.00 in0.0 mm 0.00 in0.0 mm
11:09 AM 60.4°F15.8°C 88.3°F31.3°C - 12.2 mph N19.6 kmh N 14.1 mph22.7 kmh 30.07 in1018.3 mb 0.00 in0.0 mm 0.00 in0.0 mm 0.00 in0.0 mm
11:14 AM 60.5°F15.8°C 88.5°F31.4°C - 12.8 mph N20.6 kmh N 14.4 mph23.2 kmh 30.07 in1018.3 mb 0.00 in0.0 mm 0.00 in0.0 mm 0.00 in0.0 mm
11:19 AM 60.7°F15.9°C 88.7°F31.5°C - 10.8 mph N17.4 kmh N 12.2 mph19.6 kmh 30.07 in1018.3 mb 0.00 in0.0 mm 0.00 in0.0 mm 0.00 in0.0 mm
11:24 AM 60.7°F15.9°C 88.6°F31.4°C - 11.2 mph NNW18.0 kmh NNW 12.9 mph20.8 kmh 30.07 in1018.3 mb 0.00 in0.0 mm 0.00 in0.0 mm 0.00 in0.0 mm
11:29 AM 60.6°F15.9°C 88.6°F31.4°C - 12.0 mph NNW19.3 kmh NNW 13.6 mph21.9 kmh 30.08 in1018.6 mb 0.00 in0.0 mm 0.00 in0.0 mm 0.00 in0.0 mm
11:34 AM 60.5°F15.8°C 88.5°F31.4°C - 11.7 mph NNW18.8 kmh NNW 13.2 mph21.2 kmh 30.08 in1018.6 mb 0.00 in0.0 mm 0.00 in0.0 mm 0.00 in0.0 mm
11:39 AM 60.7°F15.9°C 88.7°F31.5°C - 10.9 mph N17.5 kmh N 13.6 mph21.9 kmh 30.08 in1018.6 mb 0.00 in0.0 mm 0.00 in0.0 mm 0.00 in0.0 mm
11:44 AM 60.8°F16.0°C 88.8°F31.6°C - 10.8 mph N17.4 kmh N 12.5 mph20.1 kmh 30.08 in1018.6 mb 0.00 in0.0 mm 0.00 in0.0 mm 0.00 in0.0 mm
11:49 AM 60.6°F15.9°C 88.6°F31.4°C - 11.4 mph N18.3 kmh N 13.5 mph21.7 kmh 30.08 in1018.6 mb 0.00 in0.0 mm 0.00 in0.0 mm 0.00 in0.0 mm
11:54 AM 60.5°F15.8°C 88.5°F31.4°C - 11.0 mph N17.7 kmh N 12.2 mph19.6 kmh 30.08 in1018.6 mb 0.00 in0.0 mm 0.00 in0.0 mm 0.00 in0.0 mm
11:59 AM 60.5°F15.8°C 88.4°F31.3°C - 10.1 mph N16.3 kmh N 11.9 mph19.2 kmh 30.08 in1018.6 mb 0.00 in0.0 mm 0.00 in0.0 mm 0.00 in0.0 mm
12:04 PM 60.3°F15.7°C 88.3°F31.3°C - 10.9 mph N17.5 kmh N 12.5 mph20.1 kmh 30.08 in1018.6 mb 0.00 in0.0 mm 0.00 in0.0 mm 0.00 in0.0 mm
12:09 PM 60.3°F15.7°C 88.3°F31.3°C - 10.0 mph N16.1 kmh N 11.8 mph19.0 kmh 30.08 in1018.6 mb 0.00 in0.0 mm 0.00 in0.0 mm 0.00 in0.0 mm
12:14 PM 60.3°F15.7°C 88.3°F31.3°C - 10.3 mph NNE16.6 kmh NNE 11.6 mph18.7 kmh 30.08 in1018.6 mb 0.00 in0.0 mm 0.00 in0.0 mm 0.00 in0.0 mm
12:19 PM 60.5°F15.8°C 88.4°F31.3°C - 10.0 mph N16.1 kmh N 11.9 mph19.2 kmh 30.08 in1018.6 mb 0.00 in0.0 mm 0.00 in0.0 mm 0.00 in0.0 mm
12:24 PM 60.6°F15.9°C 88.5°F31.4°C - 9.2 mph N14.8 kmh N 11.7 mph18.8 kmh 30.08 in1018.6 mb 0.00 in0.0 mm 0.00 in0.0 mm 0.00 in0.0 mm
12:29 PM 60.5°F15.8°C 88.5°F31.4°C - 9.2 mph N14.8 kmh N 11.4 mph18.3 kmh 30.08 in1018.6 mb 0.00 in0.0 mm 0.00 in0.0 mm 0.00 in0.0 mm
12:34 PM 60.4°F15.8°C 88.4°F31.3°C - 11.3 mph NNW18.2 kmh NNW 13.4 mph21.6 kmh 30.08 in1018.6 mb 0.00 in0.0 mm 0.00 in0.0 mm 0.00 in0.0 mm
12:39 PM 60.6°F15.9°C 88.5°F31.4°C - 11.6 mph NNW18.7 kmh NNW 13.0 mph20.9 kmh 30.08 in1018.6 mb 0.00 in0.0 mm 0.00 in0.0 mm 0.00 in0.0 mm
12:44 PM 60.6°F15.9°C 88.6°F31.4°C - 11.5 mph N18.5 kmh N 13.4 mph21.6 kmh 30.08 in1018.6 mb 0.00 in0.0 mm 0.00 in0.0 mm 0.00 in0.0 mm
12:49 PM 60.6°F15.9°C 88.6°F31.4°C - 11.8 mph NNW19.0 kmh NNW 13.0 mph20.9 kmh 30.08 in1018.6 mb 0.00 in0.0 mm 0.00 in0.0 mm 0.00 in0.0 mm
12:54 PM 60.6°F15.9°C 88.5°F31.4°C - 12.9 mph N20.8 kmh N 14.6 mph23.5 kmh 30.08 in1018.6 mb 0.00 in0.0 mm 0.00 in0.0 mm 0.00 in0.0 mm
12:59 PM 60.5°F15.8°C 88.4°F31.3°C - 12.5 mph N20.1 kmh N 14.7 mph23.7 kmh 30.08 in1018.6 mb 0.00 in0.0 mm 0.00 in0.0 mm 0.00 in0.0 mm
01:04 PM 60.5°F15.8°C 88.5°F31.4°C - 16.8 mph NNW27.0 kmh NNW 18.6 mph29.9 kmh 30.08 in1018.6 mb 0.00 in0.0 mm 0.00 in0.0 mm 0.00 in0.0 mm
01:09 PM 60.2°F15.7°C 88.2°F31.2°C - 16.6 mph NNW26.7 kmh NNW 18.3 mph29.5 kmh 30.08 in1018.6 mb 0.00 in0.0 mm 0.00 in0.0 mm 0.00 in0.0 mm
01:14 PM 59.9°F15.5°C 87.8°F31.0°C - 15.6 mph NNW25.1 kmh NNW 17.8 mph28.6 kmh 30.08 in1018.6 mb 0.00 in0.0 mm 0.00 in0.0 mm 0.00 in0.0 mm
01:19 PM 59.7°F15.4°C 87.6°F30.9°C - 14.4 mph NNW23.2 kmh NNW 16.2 mph26.1 kmh 30.08 in1018.6 mb 0.00 in0.0 mm 0.00 in0.0 mm 0.00 in0.0 mm
01:24 PM 59.7°F15.4°C 87.6°F30.9°C - 15.0 mph NNW24.1 kmh NNW 16.9 mph27.2 kmh 30.08 in1018.6 mb 0.00 in0.0 mm 0.00 in0.0 mm 0.00 in0.0 mm
01:29 PM 59.7°F15.4°C 87.6°F30.9°C - 15.9 mph NNW25.6 kmh NNW 17.5 mph28.2 kmh 30.08 in1018.6 mb 0.00 in0.0 mm 0.00 in0.0 mm 0.00 in0.0 mm
01:34 PM 60.0°F15.6°C 87.9°F31.1°C - 17.7 mph N28.5 kmh N 20.4 mph32.8 kmh 30.08 in1018.6 mb 0.00 in0.0 mm 0.00 in0.0 mm 0.00 in0.0 mm
01:39 PM 60.0°F15.6°C 87.9°F31.1°C - 18.3 mph N29.5 kmh N 20.2 mph32.5 kmh 30.08 in1018.6 mb 0.00 in0.0 mm 0.00 in0.0 mm 0.00 in0.0 mm
01:44 PM 59.7°F15.4°C 87.5°F30.8°C - 17.5 mph N28.2 kmh N 19.3 mph31.1 kmh 30.08 in1018.6 mb 0.00 in0.0 mm 0.00 in0.0 mm 0.00 in0.0 mm
01:49 PM 59.6°F15.3°C 87.5°F30.8°C - 17.0 mph N27.4 kmh N 18.8 mph30.3 kmh 30.08 in1018.6 mb 0.00 in0.0 mm 0.00 in0.0 mm 0.00 in0.0 mm
01:54 PM 59.4°F15.2°C 87.1°F30.6°C - 17.4 mph N28.0 kmh N 19.6 mph31.5 kmh 30.08 in1018.6 mb 0.00 in0.0 mm 0.00 in0.0 mm 0.00 in0.0 mm
01:59 PM 59.1°F15.1°C 86.9°F30.5°C - 15.0 mph N24.1 kmh N 17.2 mph27.7 kmh 30.08 in1018.6 mb 0.00 in0.0 mm 0.00 in0.0 mm 0.00 in0.0 mm
02:04 PM 58.9°F14.9°C 86.7°F30.4°C - 15.2 mph NNW24.5 kmh NNW 17.0 mph27.4 kmh 30.08 in1018.6 mb 0.00 in0.0 mm 0.00 in0.0 mm 0.00 in0.0 mm
02:09 PM 59.0°F15.0°C 86.7°F30.4°C - 14.2 mph NNW22.9 kmh NNW 15.9 mph25.6 kmh 30.08 in1018.6 mb 0.00 in0.0 mm 0.00 in0.0 mm 0.00 in0.0 mm
02:14 PM 59.2°F15.1°C 87.0°F30.6°C - 11.6 mph NNW18.7 kmh NNW 13.0 mph20.9 kmh 30.08 in1018.6 mb 0.00 in0.0 mm 0.00 in0.0 mm 0.00 in0.0 mm
02:19 PM 59.2°F15.1°C 86.9°F30.5°C - 13.4 mph N21.6 kmh N 14.8 mph23.8 kmh 30.08 in1018.6 mb 0.00 in0.0 mm 0.00 in0.0 mm 0.00 in0.0 mm
02:24 PM 59.3°F15.2°C 87.0°F30.6°C - 12.8 mph N20.6 kmh N 14.6 mph23.5 kmh 30.08 in1018.6 mb 0.00 in0.0 mm 0.00 in0.0 mm 0.00 in0.0 mm
02:29 PM 59.7°F15.4°C 87.5°F30.8°C - 12.9 mph N20.8 kmh N 14.9 mph24.0 kmh 30.08 in1018.6 mb 0.00 in0.0 mm 0.00 in0.0 mm 0.00 in0.0 mm
02:34 PM 60.2°F15.7°C 88.0°F31.1°C - 13.3 mph NNW21.4 kmh NNW 15.2 mph24.5 kmh 30.08 in1018.6 mb 0.00 in0.0 mm 0.00 in0.0 mm 0.00 in0.0 mm
02:39 PM 60.6°F15.9°C 88.5°F31.4°C - 15.7 mph N25.3 kmh N 17.8 mph28.6 kmh 30.08 in1018.6 mb 0.00 in0.0 mm 0.00 in0.0 mm 0.00 in0.0 mm
02:44 PM 60.5°F15.8°C 88.5°F31.4°C - 11.8 mph N19.0 kmh N 14.4 mph23.2 kmh 30.08 in1018.6 mb 0.00 in0.0 mm 0.00 in0.0 mm 0.00 in0.0 mm
02:49 PM 60.2°F15.7°C 88.0°F31.1°C - 12.5 mph N20.1 kmh N 15.4 mph24.8 kmh 30.08 in1018.6 mb 0.00 in0.0 mm 0.00 in0.0 mm 0.00 in0.0 mm
02:54 PM 60.0°F15.6°C 87.9°F31.1°C - 17.1 mph NNW27.5 kmh NNW 18.6 mph29.9 kmh 30.08 in1018.6 mb 0.00 in0.0 mm 0.00 in0.0 mm 0.00 in0.0 mm
02:59 PM 60.0°F15.6°C 87.8°F31.0°C - 16.9 mph N27.2 kmh N 18.4 mph29.6 kmh 30.08 in1018.6 mb 0.00 in0.0 mm 0.00 in0.0 mm 0.00 in0.0 mm
03:04 PM 60.0°F15.6°C 87.9°F31.1°C - 16.4 mph NNW26.4 kmh NNW 18.7 mph30.1 kmh 30.08 in1018.6 mb 0.00 in0.0 mm 0.00 in0.0 mm 0.00 in0.0 mm
03:09 PM 60.1°F15.6°C 88.1°F31.2°C - 15.7 mph N25.3 kmh N 17.9 mph28.8 kmh 30.08 in1018.6 mb 0.00 in0.0 mm 0.00 in0.0 mm 0.00 in0.0 mm
03:14 PM 60.2°F15.7°C 88.0°F31.1°C - 14.7 mph N23.7 kmh N 16.9 mph27.2 kmh 30.08 in1018.6 mb 0.00 in0.0 mm 0.00 in0.0 mm 0.00 in0.0 mm
03:19 PM 60.4°F15.8°C 88.3°F31.3°C - 16.4 mph N26.4 kmh N 18.6 mph29.9 kmh 30.08 in1018.6 mb 0.00 in0.0 mm 0.00 in0.0 mm 0.00 in0.0 mm
03:24 PM 60.2°F15.7°C 88.2°F31.2°C - 15.4 mph N24.8 kmh N 17.3 mph27.8 kmh 30.08 in1018.6 mb 0.00 in0.0 mm 0.00 in0.0 mm 0.00 in0.0 mm
03:29 PM 60.2°F15.7°C 88.0°F31.1°C - 15.8 mph N25.4 kmh N 17.9 mph28.8 kmh 30.08 in1018.6 mb 0.00 in0.0 mm 0.00 in0.0 mm 0.00 in0.0 mm
03:34 PM 60.4°F15.8°C 88.3°F31.3°C - 14.6 mph NNW23.5 kmh NNW 16.9 mph27.2 kmh 30.08 in1018.6 mb 0.00 in0.0 mm 0.00 in0.0 mm 0.00 in0.0 mm
03:39 PM 60.6°F15.9°C 88.6°F31.4°C - 15.5 mph N24.9 kmh N 17.3 mph27.8 kmh 30.08 in1018.6 mb 0.00 in0.0 mm 0.00 in0.0 mm 0.00 in0.0 mm
03:44 PM 60.7°F15.9°C 88.6°F31.4°C - 13.9 mph N22.4 kmh N 15.7 mph25.3 kmh 30.08 in1018.6 mb 0.00 in0.0 mm 0.00 in0.0 mm 0.00 in0.0 mm
03:49 PM 60.9°F16.1°C 89.0°F31.7°C - 14.2 mph N22.9 kmh N 16.6 mph26.7 kmh 30.08 in1018.6 mb 0.00 in0.0 mm 0.00 in0.0 mm 0.00 in0.0 mm
03:54 PM 61.0°F16.1°C 89.1°F31.7°C - 14.3 mph N23.0 kmh N 16.8 mph27.0 kmh 30.08 in1018.6 mb 0.00 in0.0 mm 0.00 in0.0 mm 0.00 in0.0 mm
03:59 PM 61.0°F16.1°C 88.9°F31.6°C - 13.5 mph N21.7 kmh N 15.9 mph25.6 kmh 30.08 in1018.6 mb 0.00 in0.0 mm 0.00 in0.0 mm 0.00 in0.0 mm
04:04 PM 60.8°F16.0°C 88.7°F31.5°C - 14.5 mph N23.3 kmh N 16.7 mph26.9 kmh 30.08 in1018.6 mb 0.00 in0.0 mm 0.00 in0.0 mm 0.00 in0.0 mm
04:09 PM 60.8°F16.0°C 88.7°F31.5°C - 13.8 mph N22.2 kmh N 16.5 mph26.6 kmh 30.08 in1018.6 mb 0.00 in0.0 mm 0.00 in0.0 mm 0.00 in0.0 mm
04:14 PM 60.7°F15.9°C 88.6°F31.4°C - 14.4 mph N23.2 kmh N 16.5 mph26.6 kmh 30.08 in1018.6 mb 0.00 in0.0 mm 0.00 in0.0 mm 0.00 in0.0 mm
04:19 PM 60.7°F15.9°C 88.6°F31.4°C - 13.8 mph N22.2 kmh N 16.4 mph26.4 kmh 30.08 in1018.6 mb 0.00 in0.0 mm 0.00 in0.0 mm 0.00 in0.0 mm
04:24 PM 60.6°F15.9°C 88.5°F31.4°C - 14.3 mph N23.0 kmh N 16.3 mph26.2 kmh 30.08 in1018.6 mb 0.00 in0.0 mm 0.00 in0.0 mm 0.00 in0.0 mm
04:29 PM 60.7°F15.9°C 88.7°F31.5°C - 16.7 mph N26.9 kmh N 19.0 mph30.6 kmh 30.07 in1018.3 mb 0.00 in0.0 mm 0.00 in0.0 mm 0.00 in0.0 mm
04:34 PM 60.7°F15.9°C 88.7°F31.5°C - 15.3 mph N24.6 kmh N 18.2 mph29.3 kmh 30.07 in1018.3 mb 0.00 in0.0 mm 0.00 in0.0 mm 0.00 in0.0 mm
04:39 PM 60.5°F15.8°C 88.4°F31.3°C - 15.3 mph N24.6 kmh N 17.1 mph27.5 kmh 30.07 in1018.3 mb 0.00 in0.0 mm 0.00 in0.0 mm 0.00 in0.0 mm
04:44 PM 60.3°F15.7°C 88.2°F31.2°C - 16.5 mph N26.6 kmh N 19.1 mph30.7 kmh 30.07 in1018.3 mb 0.00 in0.0 mm 0.00 in0.0 mm 0.00 in0.0 mm
04:49 PM 60.4°F15.8°C 88.4°F31.3°C - 16.8 mph N27.0 kmh N 19.4 mph31.2 kmh 30.07 in1018.3 mb 0.00 in0.0 mm 0.00 in0.0 mm 0.00 in0.0 mm
04:54 PM 60.2°F15.7°C 88.0°F31.1°C - 17.2 mph N27.7 kmh N 19.0 mph30.6 kmh 30.07 in1018.3 mb 0.00 in0.0 mm 0.00 in0.0 mm 0.00 in0.0 mm
04:59 PM 60.2°F15.7°C 88.0°F31.1°C - 17.6 mph N28.3 kmh N 19.6 mph31.5 kmh 30.07 in1018.3 mb 0.00 in0.0 mm 0.00 in0.0 mm 0.00 in0.0 mm
05:04 PM 60.2°F15.7°C 88.2°F31.2°C - 16.0 mph NNW25.7 kmh NNW 18.7 mph30.1 kmh 30.07 in1018.3 mb 0.00 in0.0 mm 0.00 in0.0 mm 0.00 in0.0 mm
05:09 PM 60.2°F15.7°C 88.0°F31.1°C - 16.9 mph N27.2 kmh N 19.1 mph30.7 kmh 30.07 in1018.3 mb 0.00 in0.0 mm 0.00 in0.0 mm 0.00 in0.0 mm
05:14 PM 60.4°F15.8°C 88.3°F31.3°C - 16.7 mph N26.9 kmh N 20.4 mph32.8 kmh 30.07 in1018.3 mb 0.00 in0.0 mm 0.00 in0.0 mm 0.00 in0.0 mm
05:19 PM 60.5°F15.8°C 88.5°F31.4°C - 18.0 mph N29.0 kmh N 20.2 mph32.5 kmh 30.07 in1018.3 mb 0.00 in0.0 mm 0.00 in0.0 mm 0.00 in0.0 mm
05:24 PM 60.5°F15.8°C 88.4°F31.3°C - 16.6 mph N26.7 kmh N 18.9 mph30.4 kmh 30.07 in1018.3 mb 0.00 in0.0 mm 0.00 in0.0 mm 0.00 in0.0 mm
05:29 PM 60.3°F15.7°C 88.3°F31.3°C - 16.9 mph N27.2 kmh N 20.0 mph32.2 kmh 30.07 in1018.3 mb 0.00 in0.0 mm 0.00 in0.0 mm 0.00 in0.0 mm
05:34 PM 60.2°F15.7°C 88.2°F31.2°C - 17.3 mph NNW27.8 kmh NNW 19.1 mph30.7 kmh 30.07 in1018.3 mb 0.00 in0.0 mm 0.00 in0.0 mm 0.00 in0.0 mm
05:39 PM 60.2°F15.7°C 88.2°F31.2°C - 17.9 mph NNW28.8 kmh NNW 19.8 mph31.9 kmh 30.06 in1017.9 mb 0.00 in0.0 mm 0.00 in0.0 mm 0.00 in0.0 mm
05:44 PM 60.3°F15.7°C 88.3°F31.3°C - 17.1 mph N27.5 kmh N 18.7 mph30.1 kmh 30.07 in1018.3 mb 0.00 in0.0 mm 0.00 in0.0 mm 0.00 in0.0 mm
05:49 PM 60.3°F15.7°C 88.2°F31.2°C - 16.7 mph N26.9 kmh N 19.2 mph30.9 kmh 30.07 in1018.3 mb 0.00 in0.0 mm 0.00 in0.0 mm 0.00 in0.0 mm
05:54 PM 60.3°F15.7°C 88.2°F31.2°C - 16.6 mph NNW26.7 kmh NNW 18.8 mph30.3 kmh 30.07 in1018.3 mb 0.00 in0.0 mm 0.00 in0.0 mm 0.00 in0.0 mm
05:59 PM 60.4°F15.8°C 88.4°F31.3°C - 17.0 mph NNW27.4 kmh NNW 18.9 mph30.4 kmh 30.07 in1018.3 mb 0.00 in0.0 mm 0.00 in0.0 mm 0.00 in0.0 mm
06:04 PM 60.2°F15.7°C 88.2°F31.2°C - 16.5 mph NNW26.6 kmh NNW 18.9 mph30.4 kmh 30.06 in1017.9 mb 0.00 in0.0 mm 0.00 in0.0 mm 0.00 in0.0 mm
06:09 PM 60.2°F15.7°C 88.0°F31.1°C - 16.2 mph N26.1 kmh N 17.9 mph28.8 kmh 30.07 in1018.3 mb 0.00 in0.0 mm 0.00 in0.0 mm 0.00 in0.0 mm
06:14 PM 60.1°F15.6°C 87.9°F31.1°C - 16.8 mph N27.0 kmh N 19.1 mph30.7 kmh 30.07 in1018.3 mb 0.00 in0.0 mm 0.00 in0.0 mm 0.00 in0.0 mm
06:19 PM 59.8°F15.4°C 87.7°F30.9°C - 17.2 mph NNW27.7 kmh NNW 18.8 mph30.3 kmh 30.07 in1018.3 mb 0.00 in0.0 mm 0.00 in0.0 mm 0.00 in0.0 mm
06:24 PM 59.8°F15.4°C 87.6°F30.9°C - 16.5 mph N26.6 kmh N 19.3 mph31.1 kmh 30.06 in1017.9 mb 0.00 in0.0 mm 0.00 in0.0 mm 0.00 in0.0 mm
06:29 PM 60.0°F15.6°C 87.8°F31.0°C - 15.7 mph N25.3 kmh N 17.7 mph28.5 kmh 30.07 in1018.3 mb 0.00 in0.0 mm 0.00 in0.0 mm 0.00 in0.0 mm
06:34 PM 60.2°F15.7°C 88.2°F31.2°C - 16.5 mph NNW26.6 kmh NNW 18.7 mph30.1 kmh 30.07 in1018.3 mb 0.00 in0.0 mm 0.00 in0.0 mm 0.00 in0.0 mm
06:39 PM 60.0°F15.6°C 87.8°F31.0°C - 17.3 mph NNW27.8 kmh NNW 19.8 mph31.9 kmh 30.07 in1018.3 mb 0.00 in0.0 mm 0.00 in0.0 mm 0.00 in0.0 mm
06:44 PM 59.7°F15.4°C 87.6°F30.9°C - 17.0 mph NNW27.4 kmh NNW 19.2 mph30.9 kmh 30.07 in1018.3 mb 0.00 in0.0 mm 0.00 in0.0 mm 0.00 in0.0 mm
06:49 PM 59.7°F15.4°C 87.5°F30.8°C - 17.5 mph NNW28.2 kmh NNW 20.3 mph32.7 kmh 30.07 in1018.3 mb 0.00 in0.0 mm 0.00 in0.0 mm 0.00 in0.0 mm
06:54 PM 59.7°F15.4°C 87.6°F30.9°C - 16.5 mph NNW26.6 kmh NNW 18.6 mph29.9 kmh 30.07 in1018.3 mb 0.00 in0.0 mm 0.00 in0.0 mm 0.00 in0.0 mm
06:59 PM 59.8°F15.4°C 87.6°F30.9°C - 16.8 mph NNW27.0 kmh NNW 18.6 mph29.9 kmh 30.07 in1018.3 mb 0.00 in0.0 mm 0.00 in0.0 mm 0.00 in0.0 mm
07:04 PM 60.0°F15.6°C 87.8°F31.0°C - 17.5 mph NNW28.2 kmh NNW 19.6 mph31.5 kmh 30.07 in1018.3 mb 0.00 in0.0 mm 0.00 in0.0 mm 0.00 in0.0 mm
07:09 PM 59.9°F15.5°C 87.8°F31.0°C - 17.2 mph NNW27.7 kmh NNW 20.1 mph32.3 kmh 30.07 in1018.3 mb 0.00 in0.0 mm 0.00 in0.0 mm 0.00 in0.0 mm
07:14 PM 59.7°F15.4°C 87.5°F30.8°C - 17.9 mph NNW28.8 kmh NNW 20.2 mph32.5 kmh 30.07 in1018.3 mb 0.00 in0.0 mm 0.00 in0.0 mm 0.00 in0.0 mm
07:19 PM 59.7°F15.4°C 87.6°F30.9°C - 17.8 mph NNW28.6 kmh NNW 20.0 mph32.2 kmh 30.07 in1018.3 mb 0.00 in0.0 mm 0.00 in0.0 mm 0.00 in0.0 mm
07:24 PM 59.7°F15.4°C 87.6°F30.9°C - 19.2 mph NNW30.9 kmh NNW 21.5 mph34.6 kmh 30.07 in1018.3 mb 0.00 in0.0 mm 0.00 in0.0 mm 0.00 in0.0 mm
07:29 PM 59.5°F15.3°C 87.4°F30.8°C - 19.6 mph NNW31.5 kmh NNW 21.4 mph34.4 kmh 30.07 in1018.3 mb 0.00 in0.0 mm 0.00 in0.0 mm 0.00 in0.0 mm
07:34 PM 59.2°F15.1°C 86.9°F30.5°C - 15.9 mph NNW25.6 kmh NNW 17.4 mph28.0 kmh 30.07 in1018.3 mb 0.00 in0.0 mm 0.00 in0.0 mm 0.00 in0.0 mm
07:39 PM 59.2°F15.1°C 86.9°F30.5°C - 17.6 mph NNW28.3 kmh NNW 20.0 mph32.2 kmh 30.07 in1018.3 mb 0.00 in0.0 mm 0.00 in0.0 mm 0.00 in0.0 mm
07:44 PM 59.1°F15.1°C 86.9°F30.5°C - 14.7 mph NW23.7 kmh NW 17.5 mph28.2 kmh 30.07 in1018.3 mb 0.00 in0.0 mm 0.00 in0.0 mm 0.00 in0.0 mm
07:49 PM 59.0°F15.0°C 86.8°F30.4°C - 16.3 mph NW26.2 kmh NW 19.5 mph31.4 kmh 30.07 in1018.3 mb 0.00 in0.0 mm 0.00 in0.0 mm 0.00 in0.0 mm
07:54 PM 59.4°F15.2°C 87.1°F30.6°C - 15.8 mph NNW25.4 kmh NNW 17.7 mph28.5 kmh 30.07 in1018.3 mb 0.00 in0.0 mm 0.00 in0.0 mm 0.00 in0.0 mm
07:59 PM 59.7°F15.4°C 87.5°F30.8°C - 16.7 mph NNW26.9 kmh NNW 19.4 mph31.2 kmh 30.07 in1018.3 mb 0.00 in0.0 mm 0.00 in0.0 mm 0.00 in0.0 mm
08:04 PM 60.1°F15.6°C 88.1°F31.2°C - 17.9 mph N28.8 kmh N 20.9 mph33.6 kmh 30.07 in1018.3 mb 0.00 in0.0 mm 0.00 in0.0 mm 0.00 in0.0 mm
08:09 PM 60.3°F15.7°C 88.3°F31.3°C - 20.7 mph N33.3 kmh N 24.3 mph39.1 kmh 30.07 in1018.3 mb 0.00 in0.0 mm 0.00 in0.0 mm 0.00 in0.0 mm
08:14 PM 60.3°F15.7°C 88.3°F31.3°C - 19.0 mph NNE30.6 kmh NNE 21.5 mph34.6 kmh 30.07 in1018.3 mb 0.00 in0.0 mm 0.00 in0.0 mm 0.00 in0.0 mm
08:19 PM 60.2°F15.7°C 88.2°F31.2°C - 18.4 mph NNE29.6 kmh NNE 22.5 mph36.2 kmh 30.07 in1018.3 mb 0.00 in0.0 mm 0.00 in0.0 mm 0.00 in0.0 mm
08:24 PM 60.0°F15.6°C 87.9°F31.1°C - 18.3 mph N29.5 kmh N 20.8 mph33.5 kmh 30.07 in1018.3 mb 0.00 in0.0 mm 0.00 in0.0 mm 0.00 in0.0 mm
08:29 PM 59.8°F15.4°C 87.7°F30.9°C - 16.5 mph NNE26.6 kmh NNE 18.6 mph29.9 kmh 30.07 in1018.3 mb 0.00 in0.0 mm 0.00 in0.0 mm 0.00 in0.0 mm
08:34 PM 59.7°F15.4°C 87.6°F30.9°C - 15.8 mph NNE25.4 kmh NNE 20.4 mph32.8 kmh 30.07 in1018.3 mb 0.00 in0.0 mm 0.00 in0.0 mm 0.00 in0.0 mm
08:39 PM 59.6°F15.3°C 87.5°F30.8°C - 12.5 mph N20.1 kmh N 15.3 mph24.6 kmh 30.08 in1018.6 mb 0.00 in0.0 mm 0.00 in0.0 mm 0.00 in0.0 mm
08:44 PM 59.7°F15.4°C 87.6°F30.9°C - 14.0 mph N22.5 kmh N 16.4 mph26.4 kmh 30.08 in1018.6 mb 0.00 in0.0 mm 0.00 in0.0 mm 0.00 in0.0 mm
08:49 PM 59.8°F15.4°C 87.7°F30.9°C - 12.7 mph NNW20.4 kmh NNW 14.5 mph23.3 kmh 30.08 in1018.6 mb 0.00 in0.0 mm 0.00 in0.0 mm 0.00 in0.0 mm
08:54 PM 60.1°F15.6°C 87.9°F31.1°C - 14.1 mph NNW22.7 kmh NNW 16.1 mph25.9 kmh 30.08 in1018.6 mb 0.00 in0.0 mm 0.00 in0.0 mm 0.00 in0.0 mm
08:59 PM 59.9°F15.5°C 87.8°F31.0°C - 14.7 mph NNW23.7 kmh NNW 17.9 mph28.8 kmh 30.08 in1018.6 mb 0.00 in0.0 mm 0.00 in0.0 mm 0.00 in0.0 mm
09:04 PM 59.5°F15.3°C 87.3°F30.7°C - 13.8 mph NNW22.2 kmh NNW 15.8 mph25.4 kmh 30.08 in1018.6 mb 0.00 in0.0 mm 0.00 in0.0 mm 0.00 in0.0 mm
09:09 PM 59.2°F15.1°C 87.0°F30.6°C - 14.9 mph N24.0 kmh N 18.4 mph29.6 kmh 30.09 in1019.0 mb 0.00 in0.0 mm 0.00 in0.0 mm 0.00 in0.0 mm
09:14 PM 59.4°F15.2°C 87.1°F30.6°C - 20.9 mph N33.6 kmh N 23.7 mph38.1 kmh 30.08 in1018.6 mb 0.00 in0.0 mm 0.00 in0.0 mm 0.00 in0.0 mm
09:19 PM 60.0°F15.6°C 87.8°F31.0°C - 19.7 mph N31.7 kmh N 23.1 mph37.2 kmh 30.08 in1018.6 mb 0.00 in0.0 mm 0.00 in0.0 mm 0.00 in0.0 mm
09:24 PM 60.5°F15.8°C 88.5°F31.4°C - 19.5 mph NNE31.4 kmh NNE 22.3 mph35.9 kmh 30.08 in1018.6 mb 0.00 in0.0 mm 0.00 in0.0 mm 0.00 in0.0 mm
09:29 PM 60.6°F15.9°C 88.6°F31.4°C - 20.5 mph N33.0 kmh N 23.2 mph37.3 kmh 30.08 in1018.6 mb 0.00 in0.0 mm 0.00 in0.0 mm 0.00 in0.0 mm
09:34 PM 60.7°F15.9°C 88.7°F31.5°C - 18.9 mph N30.4 kmh N 21.6 mph34.8 kmh 30.09 in1019.0 mb 0.00 in0.0 mm 0.00 in0.0 mm 0.00 in0.0 mm
09:39 PM 60.8°F16.0°C 88.8°F31.6°C - 22.2 mph N35.7 kmh N 25.4 mph40.9 kmh 30.09 in1019.0 mb 0.00 in0.0 mm 0.00 in0.0 mm 0.00 in0.0 mm
09:44 PM 60.7°F15.9°C 88.6°F31.4°C - 21.5 mph N34.6 kmh N 24.0 mph38.6 kmh 30.08 in1018.6 mb 0.00 in0.0 mm 0.00 in0.0 mm 0.00 in0.0 mm
09:49 PM 60.7°F15.9°C 88.7°F31.5°C - 19.1 mph N30.7 kmh N 22.2 mph35.7 kmh 30.09 in1019.0 mb 0.00 in0.0 mm 0.00 in0.0 mm 0.00 in0.0 mm
09:54 PM 61.0°F16.1°C 88.9°F31.6°C - 21.3 mph N34.3 kmh N 23.6 mph38.0 kmh 30.09 in1019.0 mb 0.00 in0.0 mm 0.00 in0.0 mm 0.00 in0.0 mm
09:59 PM 60.7°F15.9°C 88.7°F31.5°C - 21.2 mph N34.1 kmh N 24.1 mph38.8 kmh 30.09 in1019.0 mb 0.00 in0.0 mm 0.00 in0.0 mm 0.00 in0.0 mm
10:04 PM 60.9°F16.1°C 88.8°F31.6°C - 20.9 mph N33.6 kmh N 24.7 mph39.8 kmh 30.09 in1019.0 mb 0.00 in0.0 mm 0.00 in0.0 mm 0.00 in0.0 mm
10:09 PM 61.0°F16.1°C 89.1°F31.7°C - 22.5 mph N36.2 kmh N 25.5 mph41.0 kmh 30.08 in1018.6 mb 0.00 in0.0 mm 0.00 in0.0 mm 0.00 in0.0 mm
10:14 PM 60.8°F16.0°C 88.8°F31.6°C - 21.1 mph N34.0 kmh N 24.6 mph39.6 kmh 30.09 in1019.0 mb 0.00 in0.0 mm 0.00 in0.0 mm 0.00 in0.0 mm
10:19 PM 60.7°F15.9°C 88.6°F31.4°C - 23.6 mph N38.0 kmh N 26.2 mph42.2 kmh 30.09 in1019.0 mb 0.00 in0.0 mm 0.00 in0.0 mm 0.00 in0.0 mm
10:24 PM 60.6°F15.9°C 88.6°F31.4°C - 21.7 mph N34.9 kmh N 25.1 mph40.4 kmh 30.09 in1019.0 mb 0.00 in0.0 mm 0.00 in0.0 mm 0.00 in0.0 mm
10:29 PM 60.5°F15.8°C 88.4°F31.3°C - 20.9 mph N33.6 kmh N 24.0 mph38.6 kmh 30.09 in1019.0 mb 0.00 in0.0 mm 0.00 in0.0 mm 0.00 in0.0 mm
10:34 PM 60.2°F15.7°C 88.2°F31.2°C - 20.6 mph N33.2 kmh N 23.2 mph37.3 kmh 30.09 in1019.0 mb 0.00 in0.0 mm 0.00 in0.0 mm 0.00 in0.0 mm
10:39 PM 59.8°F15.4°C 87.6°F30.9°C - 15.2 mph NNE24.5 kmh NNE 17.7 mph28.5 kmh 30.10 in1019.3 mb 0.00 in0.0 mm 0.00 in0.0 mm 0.00 in0.0 mm
10:44 PM 59.8°F15.4°C 87.7°F30.9°C - 14.8 mph NNE23.8 kmh NNE 17.9 mph28.8 kmh 30.10 in1019.3 mb 0.00 in0.0 mm 0.00 in0.0 mm 0.00 in0.0 mm
10:49 PM 60.0°F15.6°C 87.9°F31.1°C - 14.9 mph N24.0 kmh N 17.5 mph28.2 kmh 30.10 in1019.3 mb 0.00 in0.0 mm 0.00 in0.0 mm 0.00 in0.0 mm
10:54 PM 60.0°F15.6°C 87.8°F31.0°C - 13.7 mph NNE22.0 kmh NNE 17.1 mph27.5 kmh 30.10 in1019.3 mb 0.00 in0.0 mm 0.00 in0.0 mm 0.00 in0.0 mm
11:04 PM 60.0°F15.6°C 87.9°F31.1°C - 16.4 mph NNE26.4 kmh NNE 19.9 mph32.0 kmh 30.10 in1019.3 mb 0.00 in0.0 mm 0.00 in0.0 mm 0.00 in0.0 mm
11:09 PM 60.0°F15.6°C 87.9°F31.1°C - 15.3 mph NNE24.6 kmh NNE 19.4 mph31.2 kmh 30.10 in1019.3 mb 0.00 in0.0 mm 0.00 in0.0 mm 0.00 in0.0 mm
11:14 PM 60.1°F15.6°C 88.1°F31.2°C - 19.6 mph NNE31.5 kmh NNE 22.9 mph36.9 kmh 30.10 in1019.3 mb 0.00 in0.0 mm 0.00 in0.0 mm 0.00 in0.0 mm
11:19 PM 60.3°F15.7°C 88.2°F31.2°C - 15.1 mph NE24.3 kmh NE 19.2 mph30.9 kmh 30.10 in1019.3 mb 0.00 in0.0 mm 0.00 in0.0 mm 0.00 in0.0 mm
11:24 PM 60.3°F15.7°C 88.3°F31.3°C - 15.7 mph N25.3 kmh N 19.6 mph31.5 kmh 30.10 in1019.3 mb 0.00 in0.0 mm 0.00 in0.0 mm 0.00 in0.0 mm
11:29 PM 60.2°F15.7°C 88.2°F31.2°C - 16.6 mph N26.7 kmh N 20.6 mph33.2 kmh 30.10 in1019.3 mb 0.00 in0.0 mm 0.00 in0.0 mm 0.00 in0.0 mm
11:34 PM 60.5°F15.8°C 88.4°F31.3°C - 16.6 mph NNE26.7 kmh NNE 21.3 mph34.3 kmh 30.09 in1019.0 mb 0.00 in0.0 mm 0.00 in0.0 mm 0.00 in0.0 mm
11:39 PM 60.4°F15.8°C 88.4°F31.3°C - 19.5 mph NNE31.4 kmh NNE 23.5 mph37.8 kmh 30.09 in1019.0 mb 0.00 in0.0 mm 0.00 in0.0 mm 0.00 in0.0 mm
11:44 PM 60.4°F15.8°C 88.4°F31.3°C - 17.4 mph NNE28.0 kmh NNE 20.6 mph33.2 kmh 30.10 in1019.3 mb 0.00 in0.0 mm 0.00 in0.0 mm 0.00 in0.0 mm
11:49 PM 60.4°F15.8°C 88.3°F31.3°C - 19.1 mph N30.7 kmh N 22.0 mph35.4 kmh 30.10 in1019.3 mb 0.00 in0.0 mm 0.00 in0.0 mm 0.00 in0.0 mm
11:54 PM 60.2°F15.7°C 88.2°F31.2°C - 18.8 mph N30.3 kmh N 21.9 mph35.2 kmh 30.10 in1019.3 mb 0.00 in0.0 mm 0.00 in0.0 mm 0.00 in0.0 mm
11:59 PM 60.2°F15.7°C 88.2°F31.2°C - 17.2 mph N27.7 kmh N 20.7 mph33.3 kmh 30.10 in1019.3 mb 0.00 in0.0 mm 0.00 in0.0 mm 0.00 in0.0 mm